createdAt,value
2018-02-06T00:00:34.611Z,1019.64
2018-02-06T00:01:34.723Z,1019.61
2018-02-06T00:02:34.639Z,1019.63
2018-02-06T00:03:34.647Z,1019.64
2018-02-06T00:04:34.649Z,1019.64
2018-02-06T00:05:34.665Z,1019.62
2018-02-06T00:06:34.775Z,1019.61
2018-02-06T00:07:34.683Z,1019.58
2018-02-06T00:08:34.693Z,1019.55
2018-02-06T00:10:34.715Z,1019.55
2018-02-06T00:11:34.727Z,1019.55
2018-02-06T00:12:34.738Z,1019.54
2018-02-06T00:13:34.748Z,1019.51
2018-02-06T00:14:34.763Z,1019.49
2018-02-06T00:15:34.765Z,1019.45
2018-02-06T00:16:34.780Z,1019.49
2018-02-06T00:17:34.791Z,1019.5
2018-02-06T00:18:34.799Z,1019.48
2018-02-06T00:19:34.814Z,1019.48
2018-02-06T00:20:34.821Z,1019.48
2018-02-06T00:21:34.836Z,1019.48
2018-02-06T00:22:34.843Z,1019.43
2018-02-06T00:23:34.848Z,1019.43
2018-02-06T00:25:34.872Z,1019.43
2018-02-06T00:26:34.884Z,1019.43
2018-02-06T00:27:34.890Z,1019.42
2018-02-06T00:28:34.910Z,1019.49
2018-02-06T00:29:34.926Z,1019.47
2018-02-06T00:30:34.927Z,1019.45
2018-02-06T00:31:34.935Z,1019.47
2018-02-06T00:32:34.948Z,1019.44
2018-02-06T00:33:34.958Z,1019.42
2018-02-06T00:34:34.962Z,1019.45
2018-02-06T00:35:34.979Z,1019.41
2018-02-06T00:36:34.985Z,1019.44
2018-02-06T00:37:34.998Z,1019.41
2018-02-06T00:38:35.015Z,1019.38
2018-02-06T00:39:35.015Z,1019.37
2018-02-06T00:40:35.034Z,1019.33
2018-02-06T00:41:35.039Z,1019.36
2018-02-06T00:42:35.054Z,1019.32
2018-02-06T00:43:35.060Z,1019.29
2018-02-06T00:44:35.069Z,1019.25
2018-02-06T00:45:35.079Z,1019.25
2018-02-06T00:46:35.092Z,1019.25
2018-02-06T00:47:35.116Z,1019.27
2018-02-06T00:48:35.114Z,1019.25
2018-02-06T00:49:35.128Z,1019.22
2018-02-06T00:50:35.136Z,1019.25
2018-02-06T00:51:35.139Z,1019.24
2018-02-06T00:52:35.153Z,1019.24
2018-02-06T00:53:35.170Z,1019.22
2018-02-06T00:54:35.176Z,1019.19
2018-02-06T00:55:35.187Z,1019.22
2018-02-06T00:57:35.207Z,1019.18
2018-02-06T00:58:35.215Z,1019.2
2018-02-06T00:59:35.231Z,1019.15
2018-02-06T01:00:35.235Z,1019.1
2018-02-06T01:01:35.244Z,1019.13
2018-02-06T01:02:35.254Z,1019.14
2018-02-06T01:03:35.264Z,1019.09
2018-02-06T01:04:35.277Z,1019.12
2018-02-06T01:05:35.289Z,1019.13
2018-02-06T01:06:35.353Z,1019.1
2018-02-06T01:07:35.307Z,1019.09
2018-02-06T01:08:35.319Z,1019.05
2018-02-06T01:09:35.331Z,1019.06
2018-02-06T01:10:35.337Z,1019.06
2018-02-06T01:11:35.348Z,1019.03
2018-02-06T01:13:35.368Z,1018.99
2018-02-06T01:14:35.376Z,1019
2018-02-06T01:15:35.389Z,1018.98
2018-02-06T01:16:35.404Z,1018.93
2018-02-06T01:17:35.410Z,1018.92
2018-02-06T01:18:35.421Z,1018.91
2018-02-06T01:19:35.432Z,1018.9
2018-02-06T01:20:35.444Z,1018.88
2018-02-06T01:21:35.454Z,1018.91
2018-02-06T01:22:35.457Z,1018.9
2018-02-06T01:23:35.470Z,1018.86
2018-02-06T01:24:35.479Z,1018.87
2018-02-06T01:25:35.489Z,1018.88
2018-02-06T01:26:35.502Z,1018.85
2018-02-06T01:27:35.511Z,1018.82
2018-02-06T01:29:35.532Z,1018.75
2018-02-06T01:30:35.539Z,1018.76
2018-02-06T01:31:35.557Z,1018.72
2018-02-06T01:32:35.565Z,1018.69
2018-02-06T01:33:35.584Z,1018.69
2018-02-06T01:34:35.584Z,1018.68
2018-02-06T01:35:35.598Z,1018.67
2018-02-06T01:36:35.605Z,1018.65
2018-02-06T01:37:35.620Z,1018.62
2018-02-06T01:38:35.623Z,1018.61
2018-02-06T01:39:35.632Z,1018.59
2018-02-06T01:40:35.646Z,1018.58
2018-02-06T01:41:35.659Z,1018.58
2018-02-06T01:42:35.668Z,1018.61
2018-02-06T01:43:35.674Z,1018.57
2018-02-06T01:45:35.701Z,1018.57
2018-02-06T01:46:35.708Z,1018.55
2018-02-06T01:47:35.712Z,1018.53
2018-02-06T01:48:35.723Z,1018.48
2018-02-06T01:49:35.738Z,1018.52
2018-02-06T01:50:35.746Z,1018.52
2018-02-06T01:51:35.756Z,1018.48
2018-02-06T01:52:35.770Z,1018.46
2018-02-06T01:53:35.775Z,1018.44
2018-02-06T01:54:35.786Z,1018.44
2018-02-06T01:55:35.800Z,1018.42
2018-02-06T01:56:35.807Z,1018.38
2018-02-06T01:57:35.817Z,1018.4
2018-02-06T01:58:35.831Z,1018.35
2018-02-06T02:00:35.849Z,1018.37
2018-02-06T02:01:35.856Z,1018.35
2018-02-06T02:02:35.868Z,1018.38
2018-02-06T02:03:35.883Z,1018.37
2018-02-06T02:04:35.891Z,1018.36
2018-02-06T02:05:35.894Z,1018.41
2018-02-06T02:06:35.906Z,1018.39
2018-02-06T02:07:35.915Z,1018.32
2018-02-06T02:08:35.930Z,1018.37
2018-02-06T02:09:35.945Z,1018.31
2018-02-06T02:10:35.950Z,1018.28
2018-02-06T02:11:35.962Z,1018.31
2018-02-06T02:12:35.971Z,1018.35
2018-02-06T02:13:35.980Z,1018.28
2018-02-06T02:14:35.992Z,1018.27
2018-02-06T02:15:36.001Z,1018.24
2018-02-06T02:16:36.009Z,1018.26
2018-02-06T02:17:36.016Z,1018.19
2018-02-06T02:18:36.033Z,1018.17
2018-02-06T02:19:36.043Z,1018.17
2018-02-06T02:20:36.053Z,1018.21
2018-02-06T02:21:36.063Z,1018.19
2018-02-06T02:22:36.074Z,1018.18
2018-02-06T02:23:36.082Z,1018.19
2018-02-06T02:24:36.088Z,1018.2
2018-02-06T02:25:36.103Z,1018.21
2018-02-06T02:26:36.110Z,1018.21
2018-02-06T02:27:36.121Z,1018.15
2018-02-06T02:28:36.135Z,1018.15
2018-02-06T02:29:36.141Z,1018.17
2018-02-06T02:30:36.153Z,1018.16
2018-02-06T02:32:36.172Z,1018.13
2018-02-06T02:33:36.183Z,1018.11
2018-02-06T02:34:36.194Z,1018.13
2018-02-06T02:35:36.203Z,1018.15
2018-02-06T02:36:36.210Z,1018.13
2018-02-06T02:37:36.224Z,1018.11
2018-02-06T02:38:36.230Z,1018.1
2018-02-06T02:39:36.243Z,1018.08
2018-02-06T02:40:36.254Z,1018.07
2018-02-06T02:41:36.261Z,1018.05
2018-02-06T04:39:37.435Z,1016.94
2018-02-06T04:40:37.449Z,1016.95
2018-02-06T04:41:37.449Z,1016.94
2018-02-06T04:42:37.464Z,1016.9
2018-02-06T04:43:37.472Z,1016.93
2018-02-06T04:44:37.480Z,1016.96
2018-02-06T04:45:37.488Z,1016.92
2018-02-06T04:46:37.500Z,1016.87
2018-02-06T04:47:37.511Z,1016.87
2018-02-06T04:48:37.521Z,1016.88
2018-02-06T04:49:37.530Z,1016.83
2018-02-06T04:50:37.547Z,1016.87
2018-02-06T04:51:37.547Z,1016.89
2018-02-06T04:52:37.558Z,1016.86
2018-02-06T04:53:37.569Z,1016.82
2018-02-06T04:55:37.592Z,1016.87
2018-02-06T04:56:37.600Z,1016.79
2018-02-06T04:57:37.604Z,1016.77
2018-02-06T04:58:37.624Z,1016.87
2018-02-06T04:59:37.628Z,1016.83
2018-02-06T05:00:37.640Z,1016.78
2018-02-06T05:01:37.647Z,1016.79
2018-02-06T05:02:37.697Z,1016.76
2018-02-06T05:03:37.673Z,1016.77
2018-02-06T05:04:37.679Z,1016.71
2018-02-06T05:05:37.689Z,1016.69
2018-02-06T05:06:37.696Z,1016.68
2018-02-06T05:07:37.704Z,1016.66
2018-02-06T05:08:37.720Z,1016.67
2018-02-06T05:10:37.737Z,1016.62
2018-02-06T05:11:37.742Z,1016.6
2018-02-06T05:12:37.761Z,1016.58
2018-02-06T05:13:37.771Z,1016.56
2018-02-06T05:14:37.773Z,1016.56
2018-02-06T05:15:37.784Z,1016.52
2018-02-06T05:16:37.793Z,1016.49
2018-02-06T05:17:37.801Z,1016.48
2018-02-06T05:18:37.819Z,1016.5
2018-02-06T05:19:37.829Z,1016.45
2018-02-06T05:20:37.834Z,1016.48
2018-02-06T05:21:37.850Z,1016.47
2018-02-06T05:22:37.851Z,1016.46
2018-02-06T05:23:37.858Z,1016.46
2018-02-06T05:24:37.871Z,1016.42
2018-02-06T05:25:37.882Z,1016.44
2018-02-06T05:26:37.895Z,1016.41
2018-02-06T05:27:37.904Z,1016.37
2018-02-06T05:28:37.914Z,1016.4
2018-02-06T05:29:37.921Z,1016.4
2018-02-06T05:30:37.929Z,1016.36
2018-02-06T05:31:37.939Z,1016.42
2018-02-06T05:32:37.945Z,1016.36
2018-02-06T05:33:37.961Z,1016.36
2018-02-06T05:34:37.967Z,1016.35
2018-02-06T05:35:37.980Z,1016.34
2018-02-06T05:36:37.984Z,1016.33
2018-02-06T05:37:38.000Z,1016.31
2018-02-06T05:38:38.010Z,1016.32
2018-02-06T05:39:38.024Z,1016.28
2018-02-06T05:40:38.027Z,1016.29
2018-02-06T05:42:38.049Z,1016.3
2018-02-06T05:43:38.052Z,1016.27
2018-02-06T05:44:38.065Z,1016.31
2018-02-06T05:45:38.075Z,1016.3
2018-02-06T05:46:38.081Z,1016.32
2018-02-06T05:47:38.101Z,1016.29
2018-02-06T05:48:38.157Z,1016.27
2018-02-06T05:49:38.118Z,1016.26
2018-02-06T05:50:38.123Z,1016.27
2018-02-06T05:51:38.133Z,1016.25
2018-02-06T05:52:38.148Z,1016.25
2018-02-06T05:53:38.148Z,1016.28
2018-02-06T05:54:38.164Z,1016.26
2018-02-06T05:55:38.173Z,1016.24
2018-02-06T05:56:38.182Z,1016.27
2018-02-06T05:58:38.205Z,1016.28
2018-02-06T05:59:38.211Z,1016.31
2018-02-06T06:00:38.223Z,1016.26
2018-02-06T06:01:38.229Z,1016.34
2018-02-06T06:02:38.241Z,1016.31
2018-02-06T06:03:38.298Z,1016.34
2018-02-06T06:04:38.256Z,1016.3
2018-02-06T06:05:38.268Z,1016.32
2018-02-06T06:06:38.275Z,1016.36
2018-02-06T06:07:38.289Z,1016.3
2018-02-06T06:08:38.292Z,1016.3
2018-02-06T06:09:38.304Z,1016.33
2018-02-06T06:10:38.316Z,1016.34
2018-02-06T06:11:38.328Z,1016.33
2018-02-06T06:12:38.338Z,1016.33
2018-02-06T06:14:38.352Z,1016.32
2018-02-06T06:15:38.366Z,1016.3
2018-02-06T06:16:38.369Z,1016.32
2018-02-06T06:17:38.382Z,1016.3
2018-02-06T06:18:38.393Z,1016.34
2018-02-06T06:19:38.397Z,1016.36
2018-02-06T06:20:38.407Z,1016.33
2018-02-06T06:21:38.418Z,1016.33
2018-02-06T06:22:38.432Z,1016.34
2018-02-06T06:23:38.444Z,1016.34
2018-02-06T06:24:38.450Z,1016.29
2018-02-06T06:25:38.465Z,1016.24
2018-02-06T06:26:38.471Z,1016.3
2018-02-06T06:27:38.476Z,1016.27
2018-02-06T06:28:38.485Z,1016.29
2018-02-06T06:30:38.510Z,1016.28
2018-02-06T06:31:38.519Z,1016.22
2018-02-06T06:32:38.524Z,1016.25
2018-02-06T06:33:38.538Z,1016.26
2018-02-06T06:34:38.545Z,1016.27
2018-02-06T06:35:38.561Z,1016.22
2018-02-06T06:36:38.564Z,1016.24
2018-02-06T06:37:38.573Z,1016.24
2018-02-06T06:38:38.581Z,1016.24
2018-02-06T06:39:38.589Z,1016.23
2018-02-06T06:40:38.608Z,1016.23
2018-02-06T06:41:38.609Z,1016.27
2018-02-06T06:42:38.625Z,1016.24
2018-02-06T06:43:38.631Z,1016.2
2018-02-06T06:45:38.655Z,1016.23
2018-02-06T06:46:38.660Z,1016.29
2018-02-06T06:47:38.670Z,1016.29
2018-02-06T06:48:38.682Z,1016.29
2018-02-06T06:49:38.690Z,1016.25
2018-02-06T06:50:38.705Z,1016.27
2018-02-06T06:51:38.709Z,1016.18
2018-02-06T06:52:38.725Z,1016.23
2018-02-06T06:53:38.732Z,1016.2
2018-02-06T06:54:38.737Z,1016.23
2018-02-06T06:55:38.745Z,1016.21
2018-02-06T06:56:38.763Z,1016.24
2018-02-06T06:57:38.769Z,1016.25
2018-02-06T06:58:38.781Z,1016.28
2018-02-06T06:59:38.785Z,1016.3
2018-02-06T07:00:38.797Z,1016.31
2018-02-06T07:01:38.800Z,1016.32
2018-02-06T07:02:38.817Z,1016.26
2018-02-06T07:03:38.820Z,1016.27
2018-02-06T07:04:38.836Z,1016.27
2018-02-06T07:05:38.843Z,1016.27
2018-02-06T07:06:38.852Z,1016.3
2018-02-06T07:07:38.859Z,1016.23
2018-02-06T07:08:38.878Z,1016.26
2018-02-06T07:09:38.886Z,1016.24
2018-02-06T07:10:38.898Z,1016.29
2018-02-06T07:11:38.899Z,1016.27
2018-02-06T07:12:38.910Z,1016.23
2018-02-06T07:13:38.920Z,1016.24
2018-02-06T07:14:38.930Z,1016.29
2018-02-06T07:15:38.941Z,1016.25
2018-02-06T07:17:38.961Z,1016.26
2018-02-06T07:18:38.976Z,1016.22
2018-02-06T07:19:38.978Z,1016.21
2018-02-06T07:20:38.990Z,1016.18
2018-02-06T07:21:38.998Z,1016.17
2018-02-06T07:22:39.012Z,1016.11
2018-02-06T07:23:39.025Z,1016.13
2018-02-06T07:24:39.032Z,1016.11
2018-02-06T07:25:39.040Z,1016.09
2018-02-06T07:26:39.050Z,1016.11
2018-02-06T07:27:39.058Z,1016.1
2018-02-06T07:28:39.071Z,1016.09
2018-02-06T07:29:39.075Z,1016.07
2018-02-06T07:30:39.085Z,1016.08
2018-02-06T07:31:39.100Z,1016.12
2018-02-06T07:33:39.119Z,1016.1
2018-02-06T07:34:39.128Z,1016.06
2018-02-06T07:35:39.145Z,1016.04
2018-02-06T07:36:39.150Z,1016.04
2018-02-06T07:37:39.162Z,1016.02
2018-02-06T07:38:39.169Z,1016.08
2018-02-06T07:39:39.182Z,1016.04
2018-02-06T07:40:39.190Z,1016.06
2018-02-06T07:41:39.198Z,1016.11
2018-02-06T07:42:39.207Z,1016.09
2018-02-06T07:43:39.220Z,1016.07
2018-02-06T07:44:39.236Z,1016.06
2018-02-06T07:45:39.256Z,1016.03
2018-02-06T07:46:39.254Z,1016.05
2018-02-06T07:47:39.273Z,1016.01
2018-02-06T07:49:39.289Z,1016.03
2018-02-06T07:50:39.302Z,1016.09
2018-02-06T07:51:39.312Z,1016.07
2018-02-06T07:52:39.327Z,1016.04
2018-02-06T07:53:39.335Z,1016.04
2018-02-06T07:54:39.353Z,1016.07
2018-02-06T07:55:39.365Z,1016.07
2018-02-06T07:56:39.371Z,1016.06
2018-02-06T07:57:39.379Z,1016.08
2018-02-06T07:58:39.390Z,1016.05
2018-02-06T07:59:39.403Z,1016.06
2018-02-06T08:00:39.418Z,1016.05
2018-02-06T08:01:39.435Z,1016.07
2018-02-06T08:02:39.448Z,1016.08
2018-02-06T08:03:39.456Z,1016.07
2018-02-06T08:05:39.489Z,1016.06
2018-02-06T08:06:39.490Z,1016.06
2018-02-06T08:07:39.516Z,1016.01
2018-02-06T08:08:39.515Z,1016.01
2018-02-06T08:09:39.522Z,1016.01
2018-02-06T08:10:39.540Z,1015.96
2018-02-06T08:11:39.551Z,1016
2018-02-06T08:12:39.565Z,1016.01
2018-02-06T08:13:39.580Z,1015.95
2018-02-06T08:14:39.588Z,1015.96
2018-02-06T08:15:39.596Z,1015.96
2018-02-06T08:16:39.613Z,1015.99
2018-02-06T08:17:39.629Z,1015.97
2018-02-06T08:18:39.637Z,1016
2018-02-06T08:20:39.666Z,1016.01
2018-02-06T08:21:39.674Z,1016.02
2018-02-06T08:22:39.686Z,1016.03
2018-02-06T08:23:39.698Z,1016
2018-02-06T08:24:39.723Z,1015.97
2018-02-06T08:25:39.721Z,1015.94
2018-02-06T08:26:39.740Z,1016
2018-02-06T08:27:39.747Z,1016.03
2018-02-06T08:28:39.764Z,1015.97
2018-02-06T08:29:39.778Z,1015.98
2018-02-06T08:30:39.794Z,1015.97
2018-02-06T08:31:39.803Z,1016.01
2018-02-06T08:32:39.816Z,1015.94
2018-02-06T08:33:39.824Z,1015.96
2018-02-06T08:34:39.831Z,1015.89
2018-02-06T08:35:39.847Z,1015.89
2018-02-06T08:36:39.880Z,1015.93
2018-02-06T08:37:39.876Z,1015.93
2018-02-06T08:38:39.887Z,1015.9
2018-02-06T08:39:39.900Z,1015.9
2018-02-06T08:40:39.915Z,1015.91
2018-02-06T08:41:39.923Z,1015.89
2018-02-06T08:42:39.936Z,1015.91
2018-02-06T08:43:39.952Z,1015.92
2018-02-06T08:44:39.966Z,1015.95
2018-02-06T08:45:39.978Z,1015.98
2018-02-06T08:46:39.988Z,1015.99
2018-02-06T08:47:40.001Z,1015.99
2018-02-06T08:48:40.022Z,1015.97
2018-02-06T08:49:40.028Z,1015.9
2018-02-06T08:50:40.040Z,1015.87
2018-02-06T08:52:40.060Z,1015.85
2018-02-06T08:53:40.081Z,1015.85
2018-02-06T08:54:40.093Z,1015.8
2018-02-06T08:55:40.111Z,1015.78
2018-02-06T08:56:40.121Z,1015.77
2018-02-06T08:57:40.129Z,1015.81
2018-02-06T08:58:40.143Z,1015.81
2018-02-06T08:59:40.155Z,1015.8
2018-02-06T09:00:40.166Z,1015.8
2018-02-06T09:01:40.179Z,1015.81
2018-02-06T09:02:40.199Z,1015.82
2018-02-06T09:03:40.205Z,1015.81
2018-02-06T09:04:40.227Z,1015.82
2018-02-06T09:05:40.235Z,1015.8
2018-02-06T09:06:40.246Z,1015.77
2018-02-06T09:08:40.274Z,1015.77
2018-02-06T09:09:40.283Z,1015.76
2018-02-06T09:10:40.291Z,1015.76
2018-02-06T09:11:40.307Z,1015.71
2018-02-06T09:12:40.326Z,1015.7
2018-02-06T09:13:40.341Z,1015.73
2018-02-06T09:14:40.352Z,1015.73
2018-02-06T09:15:40.362Z,1015.68
2018-02-06T09:16:40.372Z,1015.68
2018-02-06T09:17:40.390Z,1015.64
2018-02-06T09:18:40.401Z,1015.63
2018-02-06T09:19:40.415Z,1015.62
2018-02-06T09:20:40.429Z,1015.64
2018-02-06T09:21:40.440Z,1015.64
2018-02-06T09:22:40.455Z,1015.64
2018-02-06T09:24:40.483Z,1015.67
2018-02-06T09:25:40.494Z,1015.67
2018-02-06T09:26:40.512Z,1015.68
2018-02-06T09:27:40.521Z,1015.7
2018-02-06T09:28:40.559Z,1015.66
2018-02-06T09:29:40.548Z,1015.67
2018-02-06T09:30:40.558Z,1015.65
2018-02-06T09:31:40.573Z,1015.65
2018-02-06T09:32:40.581Z,1015.65
2018-02-06T09:33:40.598Z,1015.67
2018-02-06T09:34:40.615Z,1015.66
2018-02-06T09:35:40.626Z,1015.66
2018-02-06T09:36:40.643Z,1015.65
2018-02-06T09:37:40.649Z,1015.66
2018-02-06T09:38:40.662Z,1015.64
2018-02-06T09:40:40.690Z,1015.65
2018-02-06T09:41:40.701Z,1015.62
2018-02-06T09:42:40.718Z,1015.63
2018-02-06T09:43:40.727Z,1015.63
2018-02-06T09:44:40.742Z,1015.61
2018-02-06T09:45:40.759Z,1015.66
2018-02-06T09:46:40.769Z,1015.56
2018-02-06T09:47:40.780Z,1015.55
2018-02-06T09:48:40.798Z,1015.62
2018-02-06T09:49:40.814Z,1015.58
2018-02-06T09:50:40.829Z,1015.62
2018-02-06T09:51:40.839Z,1015.53
2018-02-06T09:52:40.850Z,1015.54
2018-02-06T09:53:40.868Z,1015.55
2018-02-06T09:55:40.897Z,1015.49
2018-02-06T09:56:40.904Z,1015.5
2018-02-06T09:57:40.912Z,1015.54
2018-02-06T09:58:40.932Z,1015.49
2018-02-06T09:59:40.944Z,1015.48
2018-02-06T10:00:40.959Z,1015.51
2018-02-06T10:01:40.967Z,1015.5
2018-02-06T10:02:40.981Z,1015.45
2018-02-06T10:03:40.997Z,1015.49
2018-02-06T10:04:41.011Z,1015.52
2018-02-06T10:05:41.024Z,1015.48
2018-02-06T10:06:41.043Z,1015.48
2018-02-06T10:07:41.052Z,1015.46
2018-02-06T10:08:41.064Z,1015.4
2018-02-06T10:09:41.077Z,1015.43
2018-02-06T10:10:41.089Z,1015.41
2018-02-06T10:11:41.104Z,1015.46
2018-02-06T10:12:41.128Z,1015.4
2018-02-06T10:13:41.133Z,1015.38
2018-02-06T10:14:41.148Z,1015.38
2018-02-06T10:15:41.155Z,1015.38
2018-02-06T10:16:41.171Z,1015.38
2018-02-06T10:17:41.185Z,1015.38
2018-02-06T10:18:41.230Z,1015.34
2018-02-06T10:19:41.211Z,1015.33
2018-02-06T10:20:41.224Z,1015.34
2018-02-06T10:21:41.240Z,1015.3
2018-02-06T10:22:41.250Z,1015.3
2018-02-06T10:23:41.261Z,1015.27
2018-02-06T10:24:41.279Z,1015.29
2018-02-06T10:25:41.293Z,1015.17
2018-02-06T10:27:41.317Z,1015.19
2018-02-06T10:28:41.329Z,1015.17
2018-02-06T10:29:41.348Z,1015.12
2018-02-06T10:30:41.359Z,1015.09
2018-02-06T10:31:41.373Z,1015.12
2018-02-06T10:32:41.387Z,1015.07
2018-02-06T10:33:41.401Z,1015.04
2018-02-06T10:34:41.413Z,1015.03
2018-02-06T10:35:41.425Z,1015.04
2018-02-06T10:36:41.440Z,1015.01
2018-02-06T10:37:41.453Z,1015.04
2018-02-06T10:38:41.472Z,1014.97
2018-02-06T10:39:41.476Z,1014.94
2018-02-06T10:40:41.492Z,1014.97
2018-02-06T10:41:41.503Z,1014.95
2018-02-06T10:43:41.529Z,1014.96
2018-02-06T10:44:41.545Z,1014.94
2018-02-06T10:45:41.560Z,1014.85
2018-02-06T10:46:41.577Z,1014.9
2018-02-06T10:47:41.590Z,1014.91
2018-02-06T10:48:41.601Z,1014.86
2018-02-06T10:49:41.614Z,1014.82
2018-02-06T10:50:41.629Z,1014.87
2018-02-06T10:51:41.638Z,1014.89
2018-02-06T10:52:41.648Z,1014.81
2018-02-06T10:53:41.667Z,1014.85
2018-02-06T10:54:41.675Z,1014.79
2018-02-06T10:55:41.701Z,1014.83
2018-02-06T10:56:41.701Z,1014.81
2018-02-06T10:57:41.721Z,1014.83
2018-02-06T10:59:41.740Z,1014.77
2018-02-06T11:00:41.761Z,1014.8
2018-02-06T11:01:41.772Z,1014.76
2018-02-06T11:02:41.786Z,1014.78
2018-02-06T11:03:41.800Z,1014.75
2018-02-06T11:04:41.808Z,1014.8
2018-02-06T11:05:41.826Z,1014.74
2018-02-06T11:06:41.919Z,1014.72
2018-02-06T11:07:41.849Z,1014.74
2018-02-06T11:08:41.863Z,1014.69
2018-02-06T11:09:41.873Z,1014.71
2018-02-06T11:10:41.889Z,1014.75
2018-02-06T11:11:41.900Z,1014.72
2018-02-06T11:12:41.911Z,1014.67
2018-02-06T11:13:41.924Z,1014.7
2018-02-06T11:15:41.952Z,1014.66
2018-02-06T11:16:41.964Z,1014.64
2018-02-06T11:17:41.985Z,1014.65
2018-02-06T11:18:41.994Z,1014.62
2018-02-06T11:19:42.009Z,1014.61
2018-02-06T11:20:42.026Z,1014.61
2018-02-06T11:21:42.031Z,1014.58
2018-02-06T11:22:42.044Z,1014.55
2018-02-06T11:23:42.057Z,1014.52
2018-02-06T11:24:42.077Z,1014.54
2018-02-06T11:25:42.088Z,1014.52
2018-02-06T11:26:42.099Z,1014.5
2018-02-06T11:27:42.111Z,1014.45
2018-02-06T11:28:42.126Z,1014.47
2018-02-06T11:30:42.154Z,1014.44
2018-02-06T11:31:42.164Z,1014.46
2018-02-06T11:32:42.177Z,1014.39
2018-02-06T11:33:42.190Z,1014.41
2018-02-06T11:34:42.204Z,1014.42
2018-02-06T11:35:42.222Z,1014.44
2018-02-06T11:36:42.237Z,1014.4
2018-02-06T11:37:42.246Z,1014.38
2018-02-06T11:38:42.260Z,1014.35
2018-02-06T11:39:42.271Z,1014.36
2018-02-06T11:40:42.284Z,1014.34
2018-02-06T11:41:42.299Z,1014.32
2018-02-06T11:42:42.314Z,1014.27
2018-02-06T11:43:42.326Z,1014.23
2018-02-06T11:44:42.340Z,1014.23
2018-02-06T11:45:42.355Z,1014.24
2018-02-06T11:46:42.369Z,1014.26
2018-02-06T11:47:42.384Z,1014.19
2018-02-06T11:48:42.390Z,1014.2
2018-02-06T11:49:42.407Z,1014.15
2018-02-06T11:50:42.419Z,1014.13
2018-02-06T11:51:42.431Z,1014.14
2018-02-06T11:52:42.444Z,1014.16
2018-02-06T11:53:42.460Z,1014.12
2018-02-06T11:54:42.471Z,1014.08
2018-02-06T11:55:42.482Z,1014.14
2018-02-06T11:56:42.498Z,1014.1
2018-02-06T11:57:42.508Z,1014.1
2018-02-06T11:58:42.520Z,1014.05
2018-02-06T11:59:42.537Z,1014.08
2018-02-06T12:00:42.552Z,1014.06
2018-02-06T12:02:42.575Z,1013.99
2018-02-06T12:03:42.585Z,1013.97
2018-02-06T12:04:42.604Z,1013.96
2018-02-06T12:05:42.620Z,1013.96
2018-02-06T12:06:42.634Z,1013.96
2018-02-06T12:07:42.644Z,1013.89
2018-02-06T12:08:42.654Z,1013.9
2018-02-06T12:09:42.675Z,1013.92
2018-02-06T12:10:42.683Z,1013.92
2018-02-06T12:11:42.698Z,1013.92
2018-02-06T12:12:42.705Z,1013.9
2018-02-06T12:13:42.720Z,1013.9
2018-02-06T12:14:42.731Z,1013.88
2018-02-06T12:15:42.744Z,1013.89
2018-02-06T12:16:42.760Z,1013.87
2018-02-06T12:18:42.782Z,1013.85
2018-02-06T12:19:42.796Z,1013.8
2018-02-06T12:20:42.812Z,1013.82
2018-02-06T12:21:42.820Z,1013.83
2018-02-06T12:22:42.833Z,1013.81
2018-02-06T12:23:42.852Z,1013.87
2018-02-06T12:24:42.866Z,1013.77
2018-02-06T12:25:42.873Z,1013.76
2018-02-06T12:26:42.889Z,1013.75
2018-02-06T12:27:42.905Z,1013.75
2018-02-06T12:28:42.919Z,1013.73
2018-02-06T12:29:42.933Z,1013.73
2018-02-06T12:30:42.943Z,1013.71
2018-02-06T12:31:42.954Z,1013.7
2018-02-06T12:32:42.969Z,1013.64
2018-02-06T12:34:42.993Z,1013.6
2018-02-06T12:35:43.004Z,1013.58
2018-02-06T12:36:43.024Z,1013.5
2018-02-06T12:37:43.035Z,1013.48
2018-02-06T12:38:43.043Z,1013.53
2018-02-06T12:39:43.066Z,1013.54
2018-02-06T12:40:43.080Z,1013.53
2018-02-06T12:41:43.090Z,1013.51
2018-02-06T12:42:43.097Z,1013.51
2018-02-06T12:43:43.112Z,1013.51
2018-02-06T12:44:43.122Z,1013.44
2018-02-06T12:45:43.139Z,1013.42
2018-02-06T12:46:43.154Z,1013.43
2018-02-06T12:47:43.162Z,1013.41
2018-02-06T12:48:43.175Z,1013.45
2018-02-06T12:50:43.208Z,1013.44
2018-02-06T12:51:43.216Z,1013.42
2018-02-06T12:52:43.235Z,1013.37
2018-02-06T12:53:43.246Z,1013.37
2018-02-06T12:54:43.261Z,1013.29
2018-02-06T12:55:43.274Z,1013.27
2018-02-06T12:56:43.283Z,1013.27
2018-02-06T12:57:43.297Z,1013.31
2018-02-06T12:58:43.314Z,1013.28
2018-02-06T12:59:43.325Z,1013.28
2018-02-06T13:00:43.344Z,1013.23
2018-02-06T13:01:43.347Z,1013.21
2018-02-06T13:02:43.363Z,1013.18
2018-02-06T13:03:43.375Z,1013.13
2018-02-06T13:05:43.407Z,1013.09
2018-02-06T13:06:43.416Z,1013.08
2018-02-06T13:07:43.437Z,1013.02
2018-02-06T13:08:43.445Z,1013.06
2018-02-06T13:09:43.459Z,1013.04
2018-02-06T13:10:43.477Z,1013.02
2018-02-06T13:11:43.486Z,1012.98
2018-02-06T13:12:43.499Z,1012.99
2018-02-06T13:13:43.513Z,1012.97
2018-02-06T13:14:43.523Z,1012.94
2018-02-06T13:15:43.534Z,1012.9
2018-02-06T13:16:43.554Z,1012.86
2018-02-06T13:17:43.566Z,1012.89
2018-02-06T13:18:43.580Z,1012.81
2018-02-06T13:19:43.591Z,1012.86
2018-02-06T13:20:43.601Z,1012.85
2018-02-06T13:21:43.616Z,1012.84
2018-02-06T13:22:43.636Z,1012.84
2018-02-06T13:23:43.647Z,1012.8
2018-02-06T13:24:43.653Z,1012.75
2018-02-06T13:25:43.669Z,1012.77
2018-02-06T13:26:43.684Z,1012.78
2018-02-06T13:27:43.702Z,1012.76
2018-02-06T13:28:43.713Z,1012.69
2018-02-06T13:29:43.724Z,1012.75
2018-02-06T13:30:43.737Z,1012.73
2018-02-06T13:31:43.751Z,1012.71
2018-02-06T13:32:43.765Z,1012.75
2018-02-06T13:33:43.779Z,1012.68
2018-02-06T13:34:43.793Z,1012.69
2018-02-06T13:35:43.838Z,1012.71
2018-02-06T13:37:43.826Z,1012.63
2018-02-06T13:38:43.850Z,1012.66
2018-02-06T13:39:43.854Z,1012.64
2018-02-06T13:40:43.869Z,1012.64
2018-02-06T13:41:43.886Z,1012.64
2018-02-06T13:42:43.893Z,1012.61
2018-02-06T13:43:43.912Z,1012.63
2018-02-06T13:44:43.919Z,1012.63
2018-02-06T13:45:43.933Z,1012.58
2018-02-06T13:46:43.946Z,1012.52
2018-02-06T13:47:44.036Z,1012.52
2018-02-06T13:48:43.979Z,1012.5
2018-02-06T13:49:43.986Z,1012.5
2018-02-06T13:50:44.008Z,1012.56
2018-02-06T13:51:44.018Z,1012.54
2018-02-06T13:53:44.052Z,1012.54
2018-02-06T13:54:44.059Z,1012.59
2018-02-06T13:55:44.071Z,1012.52
2018-02-06T13:56:44.083Z,1012.52
2018-02-06T13:57:44.095Z,1012.52
2018-02-06T13:58:44.113Z,1012.45
2018-02-06T13:59:44.174Z,1012.53
2018-02-06T14:00:44.144Z,1012.52
2018-02-06T14:01:44.150Z,1012.5
2018-02-06T14:02:44.167Z,1012.47
2018-02-06T14:03:44.182Z,1012.43
2018-02-06T14:04:44.193Z,1012.51
2018-02-06T14:05:44.208Z,1012.49
2018-02-06T14:06:44.217Z,1012.5
2018-02-06T14:07:44.228Z,1012.45
2018-02-06T14:09:44.258Z,1012.46
2018-02-06T14:10:44.272Z,1012.41
2018-02-06T14:11:44.290Z,1012.44
2018-02-06T14:12:44.294Z,1012.4
2018-02-06T14:13:44.310Z,1012.43
2018-02-06T14:14:44.324Z,1012.37
2018-02-06T14:15:44.333Z,1012.37
2018-02-06T14:16:44.348Z,1012.39
2018-02-06T14:17:44.363Z,1012.38
2018-02-06T14:18:44.379Z,1012.38
2018-02-06T14:19:44.392Z,1012.32
2018-02-06T14:20:44.400Z,1012.35
2018-02-06T14:21:44.412Z,1012.35
2018-02-06T14:22:44.430Z,1012.33
2018-02-06T14:23:44.443Z,1012.33
2018-02-06T14:25:44.468Z,1012.29
2018-02-06T14:26:44.481Z,1012.32
2018-02-06T14:27:44.491Z,1012.3
2018-02-06T14:28:44.512Z,1012.3
2018-02-06T14:29:44.524Z,1012.27
2018-02-06T14:30:44.538Z,1012.28
2018-02-06T14:31:44.545Z,1012.3
2018-02-06T14:32:44.559Z,1012.29
2018-02-06T14:33:44.579Z,1012.29
2018-02-06T14:34:44.588Z,1012.25
2018-02-06T14:35:44.601Z,1012.25
2018-02-06T14:36:44.615Z,1012.23
2018-02-06T14:37:44.631Z,1012.24
2018-02-06T14:38:44.646Z,1012.25
2018-02-06T14:40:44.665Z,1012.25
2018-02-06T14:41:44.679Z,1012.21
2018-02-06T14:42:44.700Z,1012.25
2018-02-06T14:43:44.709Z,1012.21
2018-02-06T14:44:44.725Z,1012.21
2018-02-06T14:45:44.734Z,1012.19